sensor_id;sensor_type;location;lat;lon;timestamp;temperature;humidity
29777;DHT22;16677;52.224;7.484;2022-07-10T00:02:14;14.30;62.70
29777;DHT22;16677;52.224;7.484;2022-07-10T00:04:42;14.30;64.00
29777;DHT22;16677;52.224;7.484;2022-07-10T00:07:09;14.20;66.60
29777;DHT22;16677;52.224;7.484;2022-07-10T00:09:38;14.30;70.70
29777;DHT22;16677;52.224;7.484;2022-07-10T00:12:06;14.30;69.60
29777;DHT22;16677;52.224;7.484;2022-07-10T00:14:36;14.20;74.60
29777;DHT22;16677;52.224;7.484;2022-07-10T00:17:04;14.20;77.00
29777;DHT22;16677;52.224;7.484;2022-07-10T00:19:31;14.20;78.40
29777;DHT22;16677;52.224;7.484;2022-07-10T00:21:59;14.30;81.30
29777;DHT22;16677;52.224;7.484;2022-07-10T00:24:26;14.10;85.20
29777;DHT22;16677;52.224;7.484;2022-07-10T00:26:54;14.10;87.20
29777;DHT22;16677;52.224;7.484;2022-07-10T00:29:25;14.10;88.40
29777;DHT22;16677;52.224;7.484;2022-07-10T00:31:55;13.90;90.20
29777;DHT22;16677;52.224;7.484;2022-07-10T00:34:25;14.00;91.00
29777;DHT22;16677;52.224;7.484;2022-07-10T00:36:53;14.00;91.60
29777;DHT22;16677;52.224;7.484;2022-07-10T00:39:26;13.90;92.90
29777;DHT22;16677;52.224;7.484;2022-07-10T00:42:04;14.00;92.50
29777;DHT22;16677;52.224;7.484;2022-07-10T00:44:49;14.00;95.00
29777;DHT22;16677;52.224;7.484;2022-07-10T00:47:19;13.90;93.20
29777;DHT22;16677;52.224;7.484;2022-07-10T00:49:49;13.90;95.20
29777;DHT22;16677;52.224;7.484;2022-07-10T00:52:19;13.90;94.50
29777;DHT22;16677;52.224;7.484;2022-07-10T00:54:49;13.90;95.30
29777;DHT22;16677;52.224;7.484;2022-07-10T00:57:20;13.90;94.90
29777;DHT22;16677;52.224;7.484;2022-07-10T00:59:48;13.90;94.50
29777;DHT22;16677;52.224;7.484;2022-07-10T01:02:17;13.90;94.10
29777;DHT22;16677;52.224;7.484;2022-07-10T01:04:47;13.90;94.10
29777;DHT22;16677;52.224;7.484;2022-07-10T01:07:15;13.80;94.00
29777;DHT22;16677;52.224;7.484;2022-07-10T01:09:43;13.80;95.60
29777;DHT22;16677;52.224;7.484;2022-07-10T01:12:11;13.90;94.90
29777;DHT22;16677;52.224;7.484;2022-07-10T01:14:39;13.90;95.10
29777;DHT22;16677;52.224;7.484;2022-07-10T01:17:11;13.80;94.50
29777;DHT22;16677;52.224;7.484;2022-07-10T01:19:39;13.60;94.50
29777;DHT22;16677;52.224;7.484;2022-07-10T01:22:06;13.80;95.00
29777;DHT22;16677;52.224;7.484;2022-07-10T01:24:33;13.90;93.40
29777;DHT22;16677;52.224;7.484;2022-07-10T01:27:01;13.80;94.30
29777;DHT22;16677;52.224;7.484;2022-07-10T01:29:29;13.80;94.20
29777;DHT22;16677;52.224;7.484;2022-07-10T01:31:56;13.80;96.40
29777;DHT22;16677;52.224;7.484;2022-07-10T01:34:26;13.80;96.40
29777;DHT22;16677;52.224;7.484;2022-07-10T01:36:54;13.80;95.80
29777;DHT22;16677;52.224;7.484;2022-07-10T01:39:21;13.70;97.20
29777;DHT22;16677;52.224;7.484;2022-07-10T01:41:48;13.70;97.50
29777;DHT22;16677;52.224;7.484;2022-07-10T01:44:15;13.70;97.50
29777;DHT22;16677;52.224;7.484;2022-07-10T01:46:46;13.80;96.60
29777;DHT22;16677;52.224;7.484;2022-07-10T01:49:14;13.70;97.10
29777;DHT22;16677;52.224;7.484;2022-07-10T01:51:42;13.70;96.00
29777;DHT22;16677;52.224;7.484;2022-07-10T01:54:10;13.70;96.70
29777;DHT22;16677;52.224;7.484;2022-07-10T01:56:37;13.80;97.20
29777;DHT22;16677;52.224;7.484;2022-07-10T01:59:05;13.80;95.20
29777;DHT22;16677;52.224;7.484;2022-07-10T02:01:32;13.70;95.80
29777;DHT22;16677;52.224;7.484;2022-07-10T02:04:00;13.70;97.30
29777;DHT22;16677;52.224;7.484;2022-07-10T02:06:46;13.70;96.40
29777;DHT22;16677;52.224;7.484;2022-07-10T02:09:13;13.60;98.40
29777;DHT22;16677;52.224;7.484;2022-07-10T02:11:41;13.70;98.10
29777;DHT22;16677;52.224;7.484;2022-07-10T02:14:08;13.70;97.90
29777;DHT22;16677;52.224;7.484;2022-07-10T02:16:36;13.60;98.20
29777;DHT22;16677;52.224;7.484;2022-07-10T02:19:03;13.60;99.50
29777;DHT22;16677;52.224;7.484;2022-07-10T02:21:30;13.50;99.90
29777;DHT22;16677;52.224;7.484;2022-07-10T02:23:57;13.50;99.20
29777;DHT22;16677;52.224;7.484;2022-07-10T02:26:25;13.50;99.90
29777;DHT22;16677;52.224;7.484;2022-07-10T02:28:52;13.50;99.90
29777;DHT22;16677;52.224;7.484;2022-07-10T02:31:19;13.40;99.90
29777;DHT22;16677;52.224;7.484;2022-07-10T02:33:46;13.40;99.90
29777;DHT22;16677;52.224;7.484;2022-07-10T02:36:14;13.50;99.90
29777;DHT22;16677;52.224;7.484;2022-07-10T02:38:41;13.40;99.90
29777;DHT22;16677;52.224;7.484;2022-07-10T02:41:08;13.40;99.90
29777;DHT22;16677;52.224;7.484;2022-07-10T02:43:35;13.40;99.90
29777;DHT22;16677;52.224;7.484;2022-07-10T02:46:03;13.30;99.90
29777;DHT22;16677;52.224;7.484;2022-07-10T02:48:30;13.30;99.90
29777;DHT22;16677;52.224;7.484;2022-07-10T02:50:57;13.30;99.90
29777;DHT22;16677;52.224;7.484;2022-07-10T02:53:24;13.30;99.90
29777;DHT22;16677;52.224;7.484;2022-07-10T02:55:51;13.40;99.90
29777;DHT22;16677;52.224;7.484;2022-07-10T02:58:18;13.40;99.90
29777;DHT22;16677;52.224;7.484;2022-07-10T03:00:46;13.60;99.90
29777;DHT22;16677;52.224;7.484;2022-07-10T03:03:13;13.40;99.90
29777;DHT22;16677;52.224;7.484;2022-07-10T03:05:41;13.60;99.90
29777;DHT22;16677;52.224;7.484;2022-07-10T03:08:11;13.50;99.70
29777;DHT22;16677;52.224;7.484;2022-07-10T03:10:39;13.50;99.90
29777;DHT22;16677;52.224;7.484;2022-07-10T03:13:08;13.70;99.90
29777;DHT22;16677;52.224;7.484;2022-07-10T03:15:36;13.50;99.90
29777;DHT22;16677;52.224;7.484;2022-07-10T03:18:04;13.60;99.90
29777;DHT22;16677;52.224;7.484;2022-07-10T03:20:34;13.60;99.90
29777;DHT22;16677;52.224;7.484;2022-07-10T03:23:01;13.50;99.90
29777;DHT22;16677;52.224;7.484;2022-07-10T03:25:28;13.30;99.90
29777;DHT22;16677;52.224;7.484;2022-07-10T03:27:54;13.30;99.90
29777;DHT22;16677;52.224;7.484;2022-07-10T03:30:21;13.30;99.90
29777;DHT22;16677;52.224;7.484;2022-07-10T03:32:48;13.40;99.90
29777;DHT22;16677;52.224;7.484;2022-07-10T03:35:15;13.40;99.90
29777;DHT22;16677;52.224;7.484;2022-07-10T03:37:42;13.40;99.90
29777;DHT22;16677;52.224;7.484;2022-07-10T03:40:10;13.40;99.90
29777;DHT22;16677;52.224;7.484;2022-07-10T03:42:37;13.40;99.90
29777;DHT22;16677;52.224;7.484;2022-07-10T03:45:04;13.40;99.90
29777;DHT22;16677;52.224;7.484;2022-07-10T03:47:31;13.40;99.90
29777;DHT22;16677;52.224;7.484;2022-07-10T03:49:58;13.40;99.90
29777;DHT22;16677;52.224;7.484;2022-07-10T03:52:25;13.50;99.90
29777;DHT22;16677;52.224;7.484;2022-07-10T03:54:54;13.60;99.90
29777;DHT22;16677;52.224;7.484;2022-07-10T03:57:21;13.40;99.90
29777;DHT22;16677;52.224;7.484;2022-07-10T04:00:07;13.40;99.90
29777;DHT22;16677;52.224;7.484;2022-07-10T04:02:34;13.30;99.90
29777;DHT22;16677;52.224;7.484;2022-07-10T04:05:12;13.40;99.90
29777;DHT22;16677;52.224;7.484;2022-07-10T04:07:39;13.40;99.90
29777;DHT22;16677;52.224;7.484;2022-07-10T04:10:07;13.40;99.90
29777;DHT22;16677;52.224;7.484;2022-07-10T04:12:36;13.30;99.90
29777;DHT22;16677;52.224;7.484;2022-07-10T04:15:05;13.40;99.90
29777;DHT22;16677;52.224;7.484;2022-07-10T04:17:33;13.40;99.90
29777;DHT22;16677;52.224;7.484;2022-07-10T04:20:00;13.30;99.90
29777;DHT22;16677;52.224;7.484;2022-07-10T04:22:27;13.40;99.90
29777;DHT22;16677;52.224;7.484;2022-07-10T04:24:55;13.50;99.90
29777;DHT22;16677;52.224;7.484;2022-07-10T04:27:22;13.50;99.90
29777;DHT22;16677;52.224;7.484;2022-07-10T04:29:49;13.50;99.90
29777;DHT22;16677;52.224;7.484;2022-07-10T04:32:16;13.50;99.90
29777;DHT22;16677;52.224;7.484;2022-07-10T04:34:43;13.50;99.90
29777;DHT22;16677;52.224;7.484;2022-07-10T04:37:10;13.60;99.90
29777;DHT22;16677;52.224;7.484;2022-07-10T04:39:38;13.50;99.90
29777;DHT22;16677;52.224;7.484;2022-07-10T04:42:07;13.70;99.90
29777;DHT22;16677;52.224;7.484;2022-07-10T04:44:35;13.70;99.90
29777;DHT22;16677;52.224;7.484;2022-07-10T04:47:03;13.70;99.90
29777;DHT22;16677;52.224;7.484;2022-07-10T04:49:31;13.80;99.90
29777;DHT22;16677;52.224;7.484;2022-07-10T04:51:59;13.80;98.30
29777;DHT22;16677;52.224;7.484;2022-07-10T04:54:26;13.70;99.90
29777;DHT22;16677;52.224;7.484;2022-07-10T04:56:53;13.60;99.90
29777;DHT22;16677;52.224;7.484;2022-07-10T04:59:20;13.70;99.80
29777;DHT22;16677;52.224;7.484;2022-07-10T05:01:48;13.80;97.00
29777;DHT22;16677;52.224;7.484;2022-07-10T05:04:15;13.80;97.60
29777;DHT22;16677;52.224;7.484;2022-07-10T05:06:47;13.90;95.50
29777;DHT22;16677;52.224;7.484;2022-07-10T05:09:14;13.70;91.60
29777;DHT22;16677;52.224;7.484;2022-07-10T05:11:42;13.80;94.40
29777;DHT22;16677;52.224;7.484;2022-07-10T05:14:09;13.80;93.10
29777;DHT22;16677;52.224;7.484;2022-07-10T05:16:35;14.00;92.20
29777;DHT22;16677;52.224;7.484;2022-07-10T05:19:03;13.70;94.70
29777;DHT22;16677;52.224;7.484;2022-07-10T05:21:30;13.80;93.50
29777;DHT22;16677;52.224;7.484;2022-07-10T05:23:57;14.00;88.40
29777;DHT22;16677;52.224;7.484;2022-07-10T05:26:24;14.00;86.90
29777;DHT22;16677;52.224;7.484;2022-07-10T05:28:51;14.30;79.00
29777;DHT22;16677;52.224;7.484;2022-07-10T05:31:18;14.20;80.50
29777;DHT22;16677;52.224;7.484;2022-07-10T05:33:45;14.40;72.80
29777;DHT22;16677;52.224;7.484;2022-07-10T05:36:12;14.40;65.00
29777;DHT22;16677;52.224;7.484;2022-07-10T05:38:39;14.80;54.20
29777;DHT22;16677;52.224;7.484;2022-07-10T05:41:07;15.10;41.50
29777;DHT22;16677;52.224;7.484;2022-07-10T05:43:35;14.70;53.20
29777;DHT22;16677;52.224;7.484;2022-07-10T05:46:02;14.60;61.20
29777;DHT22;16677;52.224;7.484;2022-07-10T05:48:29;14.60;54.30
29777;DHT22;16677;52.224;7.484;2022-07-10T05:50:56;14.60;55.80
29777;DHT22;16677;52.224;7.484;2022-07-10T05:53:44;14.30;66.50
29777;DHT22;16677;52.224;7.484;2022-07-10T05:56:11;14.80;58.60
29777;DHT22;16677;52.224;7.484;2022-07-10T05:58:38;14.90;45.20
29777;DHT22;16677;52.224;7.484;2022-07-10T06:01:06;15.10;41.00
29777;DHT22;16677;52.224;7.484;2022-07-10T06:03:33;15.10;37.50
29777;DHT22;16677;52.224;7.484;2022-07-10T06:06:00;15.00;43.40
29777;DHT22;16677;52.224;7.484;2022-07-10T06:08:27;15.20;38.40
29777;DHT22;16677;52.224;7.484;2022-07-10T06:10:54;15.80;29.30
29777;DHT22;16677;52.224;7.484;2022-07-10T06:13:21;15.40;34.90
29777;DHT22;16677;52.224;7.484;2022-07-10T06:15:48;15.70;26.20
29777;DHT22;16677;52.224;7.484;2022-07-10T06:18:15;15.50;26.80
29777;DHT22;16677;52.224;7.484;2022-07-10T06:20:42;15.30;28.10
29777;DHT22;16677;52.224;7.484;2022-07-10T06:23:09;15.50;20.20
29777;DHT22;16677;52.224;7.484;2022-07-10T06:25:36;15.60;16.90
29777;DHT22;16677;52.224;7.484;2022-07-10T06:28:03;15.60;22.20
29777;DHT22;16677;52.224;7.484;2022-07-10T06:30:31;15.50;24.00
29777;DHT22;16677;52.224;7.484;2022-07-10T06:32:58;15.60;20.10
29777;DHT22;16677;52.224;7.484;2022-07-10T06:35:25;15.60;26.30
29777;DHT22;16677;52.224;7.484;2022-07-10T06:37:52;15.60;24.70
29777;DHT22;16677;52.224;7.484;2022-07-10T06:40:20;15.70;32.70
29777;DHT22;16677;52.224;7.484;2022-07-10T06:42:47;15.30;36.50
29777;DHT22;16677;52.224;7.484;2022-07-10T06:45:14;15.00;48.50
29777;DHT22;16677;52.224;7.484;2022-07-10T06:47:41;15.00;49.30
29777;DHT22;16677;52.224;7.484;2022-07-10T06:50:26;15.00;56.20
29777;DHT22;16677;52.224;7.484;2022-07-10T06:52:53;14.80;78.00
29777;DHT22;16677;52.224;7.484;2022-07-10T06:55:21;14.70;91.00
29777;DHT22;16677;52.224;7.484;2022-07-10T06:57:48;14.60;96.50
29777;DHT22;16677;52.224;7.484;2022-07-10T07:00:16;14.60;94.90
29777;DHT22;16677;52.224;7.484;2022-07-10T07:02:43;14.90;92.80
29777;DHT22;16677;52.224;7.484;2022-07-10T07:05:11;15.00;92.60
29777;DHT22;16677;52.224;7.484;2022-07-10T07:07:39;15.40;82.60
29777;DHT22;16677;52.224;7.484;2022-07-10T07:10:08;15.40;71.10
29777;DHT22;16677;52.224;7.484;2022-07-10T07:12:35;15.10;81.10
29777;DHT22;16677;52.224;7.484;2022-07-10T07:15:04;15.10;82.90
29777;DHT22;16677;52.224;7.484;2022-07-10T07:17:31;15.40;70.10
29777;DHT22;16677;52.224;7.484;2022-07-10T07:20:12;15.20;74.20
29777;DHT22;16677;52.224;7.484;2022-07-10T07:22:58;15.20;79.30
29777;DHT22;16677;52.224;7.484;2022-07-10T07:25:39;15.00;87.40
29777;DHT22;16677;52.224;7.484;2022-07-10T07:28:09;15.10;79.40
29777;DHT22;16677;52.224;7.484;2022-07-10T07:30:42;15.10;83.10
29777;DHT22;16677;52.224;7.484;2022-07-10T07:33:10;15.20;77.60
29777;DHT22;16677;52.224;7.484;2022-07-10T07:35:37;15.40;69.10
29777;DHT22;16677;52.224;7.484;2022-07-10T07:38:04;15.10;70.80
29777;DHT22;16677;52.224;7.484;2022-07-10T07:40:33;15.00;78.50
29777;DHT22;16677;52.224;7.484;2022-07-10T07:43:00;15.30;72.90
29777;DHT22;16677;52.224;7.484;2022-07-10T07:45:27;15.30;73.10
29777;DHT22;16677;52.224;7.484;2022-07-10T07:47:58;15.40;70.40
29777;DHT22;16677;52.224;7.484;2022-07-10T07:50:34;15.50;67.40
29777;DHT22;16677;52.224;7.484;2022-07-10T07:53:02;15.30;77.50
29777;DHT22;16677;52.224;7.484;2022-07-10T07:55:31;15.40;77.40
29777;DHT22;16677;52.224;7.484;2022-07-10T07:58:00;15.00;92.20
29777;DHT22;16677;52.224;7.484;2022-07-10T08:00:28;15.10;94.90
29777;DHT22;16677;52.224;7.484;2022-07-10T08:02:57;15.50;90.30
29777;DHT22;16677;52.224;7.484;2022-07-10T08:05:25;15.40;80.40
29777;DHT22;16677;52.224;7.484;2022-07-10T08:07:55;15.20;92.60
29777;DHT22;16677;52.224;7.484;2022-07-10T08:10:24;15.30;95.00
29777;DHT22;16677;52.224;7.484;2022-07-10T08:12:53;15.90;78.50
29777;DHT22;16677;52.224;7.484;2022-07-10T08:15:20;16.20;63.10
29777;DHT22;16677;52.224;7.484;2022-07-10T08:17:53;16.60;37.70
29777;DHT22;16677;52.224;7.484;2022-07-10T08:20:20;16.40;48.30
29777;DHT22;16677;52.224;7.484;2022-07-10T08:22:47;16.20;55.10
29777;DHT22;16677;52.224;7.484;2022-07-10T08:25:21;16.30;54.00
29777;DHT22;16677;52.224;7.484;2022-07-10T08:27:49;16.00;60.50
29777;DHT22;16677;52.224;7.484;2022-07-10T08:30:16;15.90;63.90
29777;DHT22;16677;52.224;7.484;2022-07-10T08:32:44;15.90;67.10
29777;DHT22;16677;52.224;7.484;2022-07-10T08:35:11;15.70;78.30
29777;DHT22;16677;52.224;7.484;2022-07-10T08:37:44;15.80;93.80
29777;DHT22;16677;52.224;7.484;2022-07-10T08:40:14;15.60;99.90
29777;DHT22;16677;52.224;7.484;2022-07-10T08:42:43;15.60;98.70
29777;DHT22;16677;52.224;7.484;2022-07-10T08:45:13;15.30;99.90
29777;DHT22;16677;52.224;7.484;2022-07-10T08:47:45;15.30;99.90
29777;DHT22;16677;52.224;7.484;2022-07-10T08:50:23;15.50;99.90
29777;DHT22;16677;52.224;7.484;2022-07-10T08:55:28;15.20;99.90
29777;DHT22;16677;52.224;7.484;2022-07-10T08:57:55;14.90;99.90
29777;DHT22;16677;52.224;7.484;2022-07-10T09:00:23;15.00;99.90
29777;DHT22;16677;52.224;7.484;2022-07-10T09:02:53;15.20;99.90
29777;DHT22;16677;52.224;7.484;2022-07-10T09:05:22;15.20;99.90
29777;DHT22;16677;52.224;7.484;2022-07-10T09:07:49;15.50;99.90
29777;DHT22;16677;52.224;7.484;2022-07-10T09:10:20;15.90;99.90
29777;DHT22;16677;52.224;7.484;2022-07-10T09:12:53;16.20;99.90
29777;DHT22;16677;52.224;7.484;2022-07-10T09:15:22;15.90;99.90
29777;DHT22;16677;52.224;7.484;2022-07-10T09:17:53;15.90;99.90
29777;DHT22;16677;52.224;7.484;2022-07-10T09:20:26;16.00;99.90
29777;DHT22;16677;52.224;7.484;2022-07-10T09:22:53;16.20;99.90
29777;DHT22;16677;52.224;7.484;2022-07-10T09:25:20;16.50;99.90
29777;DHT22;16677;52.224;7.484;2022-07-10T09:27:54;16.50;99.90
29777;DHT22;16677;52.224;7.484;2022-07-10T09:30:40;16.60;90.40
29777;DHT22;16677;52.224;7.484;2022-07-10T09:33:18;16.70;91.90
29777;DHT22;16677;52.224;7.484;2022-07-10T09:36:11;16.50;90.00
29777;DHT22;16677;52.224;7.484;2022-07-10T09:41:14;16.50;91.80
29777;DHT22;16677;52.224;7.484;2022-07-10T09:43:49;16.20;97.50
29777;DHT22;16677;52.224;7.484;2022-07-10T09:46:18;16.40;99.90
29777;DHT22;16677;52.224;7.484;2022-07-10T09:48:45;16.40;99.80
29777;DHT22;16677;52.224;7.484;2022-07-10T09:51:13;16.30;99.90
29777;DHT22;16677;52.224;7.484;2022-07-10T09:53:43;16.20;99.20
29777;DHT22;16677;52.224;7.484;2022-07-10T09:56:11;16.50;96.30
29777;DHT22;16677;52.224;7.484;2022-07-10T09:58:39;16.20;99.90
29777;DHT22;16677;52.224;7.484;2022-07-10T10:01:08;16.40;99.90
29777;DHT22;16677;52.224;7.484;2022-07-10T10:03:39;16.40;95.80
29777;DHT22;16677;52.224;7.484;2022-07-10T10:06:15;16.40;99.90
29777;DHT22;16677;52.224;7.484;2022-07-10T10:08:58;16.50;99.90
29777;DHT22;16677;52.224;7.484;2022-07-10T10:11:27;16.30;99.90
29777;DHT22;16677;52.224;7.484;2022-07-10T10:13:57;15.90;99.90
29777;DHT22;16677;52.224;7.484;2022-07-10T10:16:27;15.80;99.90
29777;DHT22;16677;52.224;7.484;2022-07-10T10:19:02;15.90;99.90
29777;DHT22;16677;52.224;7.484;2022-07-10T10:21:48;15.60;99.90
29777;DHT22;16677;52.224;7.484;2022-07-10T10:24:16;15.80;99.90
29777;DHT22;16677;52.224;7.484;2022-07-10T10:26:45;15.80;99.90
29777;DHT22;16677;52.224;7.484;2022-07-10T10:29:14;15.70;99.90
29777;DHT22;16677;52.224;7.484;2022-07-10T10:31:41;15.90;99.90
29777;DHT22;16677;52.224;7.484;2022-07-10T10:34:09;16.10;99.90
29777;DHT22;16677;52.224;7.484;2022-07-10T10:39:18;15.50;99.90
29777;DHT22;16677;52.224;7.484;2022-07-10T10:41:53;15.80;99.90
29777;DHT22;16677;52.224;7.484;2022-07-10T10:44:25;15.90;99.90
29777;DHT22;16677;52.224;7.484;2022-07-10T10:46:58;16.20;99.90
29777;DHT22;16677;52.224;7.484;2022-07-10T10:50:08;16.30;99.90
29777;DHT22;16677;52.224;7.484;2022-07-10T10:52:35;16.70;99.90
29777;DHT22;16677;52.224;7.484;2022-07-10T10:55:04;16.60;99.90
29777;DHT22;16677;52.224;7.484;2022-07-10T11:00:03;16.60;99.90
29777;DHT22;16677;52.224;7.484;2022-07-10T11:02:35;17.10;99.90
29777;DHT22;16677;52.224;7.484;2022-07-10T11:10:32;17.30;99.90
29777;DHT22;16677;52.224;7.484;2022-07-10T11:13:01;17.20;99.90
29777;DHT22;16677;52.224;7.484;2022-07-10T11:15:31;17.30;99.90
29777;DHT22;16677;52.224;7.484;2022-07-10T11:18:09;16.90;99.90
29777;DHT22;16677;52.224;7.484;2022-07-10T11:20:47;17.10;99.90
29777;DHT22;16677;52.224;7.484;2022-07-10T11:26:05;17.20;96.50
29777;DHT22;16677;52.224;7.484;2022-07-10T11:31:10;17.30;97.80
29777;DHT22;16677;52.224;7.484;2022-07-10T11:33:42;17.20;81.60
29777;DHT22;16677;52.224;7.484;2022-07-10T11:36:14;17.20;80.50
29777;DHT22;16677;52.224;7.484;2022-07-10T11:38:42;17.10;89.80
29777;DHT22;16677;52.224;7.484;2022-07-10T11:41:19;17.00;96.40
29777;DHT22;16677;52.224;7.484;2022-07-10T11:43:54;17.00;95.80
29777;DHT22;16677;52.224;7.484;2022-07-10T11:46:24;16.50;99.90
29777;DHT22;16677;52.224;7.484;2022-07-10T11:48:52;16.50;99.90
29777;DHT22;16677;52.224;7.484;2022-07-10T11:51:27;16.70;99.90
29777;DHT22;16677;52.224;7.484;2022-07-10T11:54:04;17.20;99.90
29777;DHT22;16677;52.224;7.484;2022-07-10T11:56:36;16.90;99.90
29777;DHT22;16677;52.224;7.484;2022-07-10T11:59:12;16.50;99.90
29777;DHT22;16677;52.224;7.484;2022-07-10T12:01:46;16.00;99.90
29777;DHT22;16677;52.224;7.484;2022-07-10T12:04:17;16.00;99.90
29777;DHT22;16677;52.224;7.484;2022-07-10T12:06:47;15.60;99.90
29777;DHT22;16677;52.224;7.484;2022-07-10T12:09:16;15.60;99.90
29777;DHT22;16677;52.224;7.484;2022-07-10T12:11:44;15.70;99.90
29777;DHT22;16677;52.224;7.484;2022-07-10T12:14:25;16.00;99.90
29777;DHT22;16677;52.224;7.484;2022-07-10T12:16:56;16.40;99.90
29777;DHT22;16677;52.224;7.484;2022-07-10T12:19:26;16.70;1.00
29777;DHT22;16677;52.224;7.484;2022-07-10T12:21:54;16.70;99.90
29777;DHT22;16677;52.224;7.484;2022-07-10T12:24:24;16.70;1.00
29777;DHT22;16677;52.224;7.484;2022-07-10T12:26:52;16.70;1.00
29777;DHT22;16677;52.224;7.484;2022-07-10T12:29:27;16.80;99.90
29777;DHT22;16677;52.224;7.484;2022-07-10T12:31:59;16.90;1.00
29777;DHT22;16677;52.224;7.484;2022-07-10T12:34:36;17.20;99.90
29777;DHT22;16677;52.224;7.484;2022-07-10T12:37:11;16.70;99.90
29777;DHT22;16677;52.224;7.484;2022-07-10T12:39:52;16.70;99.90
29777;DHT22;16677;52.224;7.484;2022-07-10T12:42:30;16.60;99.90
29777;DHT22;16677;52.224;7.484;2022-07-10T12:45:10;16.50;99.90
29777;DHT22;16677;52.224;7.484;2022-07-10T12:47:45;16.30;99.90
29777;DHT22;16677;52.224;7.484;2022-07-10T12:50:16;16.00;99.90
29777;DHT22;16677;52.224;7.484;2022-07-10T12:52:44;15.80;99.90
29777;DHT22;16677;52.224;7.484;2022-07-10T12:57:59;15.80;99.90
29777;DHT22;16677;52.224;7.484;2022-07-10T13:00:28;15.90;99.90
29777;DHT22;16677;52.224;7.484;2022-07-10T13:03:06;16.10;99.90
29777;DHT22;16677;52.224;7.484;2022-07-10T13:05:39;16.30;99.90
29777;DHT22;16677;52.224;7.484;2022-07-10T13:08:19;16.90;99.90
29777;DHT22;16677;52.224;7.484;2022-07-10T13:10:56;16.90;99.90
29777;DHT22;16677;52.224;7.484;2022-07-10T13:13:25;17.20;99.90
29777;DHT22;16677;52.224;7.484;2022-07-10T13:15:52;17.50;99.90
29777;DHT22;16677;52.224;7.484;2022-07-10T13:18:25;17.30;99.90
29777;DHT22;16677;52.224;7.484;2022-07-10T13:20:54;17.20;99.90
29777;DHT22;16677;52.224;7.484;2022-07-10T13:23:28;17.40;99.90
29777;DHT22;16677;52.224;7.484;2022-07-10T13:25:59;17.70;99.90
29777;DHT22;16677;52.224;7.484;2022-07-10T13:28:28;17.70;99.90
29777;DHT22;16677;52.224;7.484;2022-07-10T13:30:55;17.70;95.10
29777;DHT22;16677;52.224;7.484;2022-07-10T13:33:22;17.50;99.90
29777;DHT22;16677;52.224;7.484;2022-07-10T13:35:52;17.60;99.90
29777;DHT22;16677;52.224;7.484;2022-07-10T13:38:19;17.50;99.90
29777;DHT22;16677;52.224;7.484;2022-07-10T13:40:47;17.40;99.90
29777;DHT22;16677;52.224;7.484;2022-07-10T13:43:14;17.20;99.90
29777;DHT22;16677;52.224;7.484;2022-07-10T13:45:43;17.20;99.90
29777;DHT22;16677;52.224;7.484;2022-07-10T13:48:14;16.80;99.90
29777;DHT22;16677;52.224;7.484;2022-07-10T13:50:44;16.90;99.90
29777;DHT22;16677;52.224;7.484;2022-07-10T13:53:14;16.90;99.90
29777;DHT22;16677;52.224;7.484;2022-07-10T13:55:45;17.00;99.90
29777;DHT22;16677;52.224;7.484;2022-07-10T13:58:13;17.10;99.90
29777;DHT22;16677;52.224;7.484;2022-07-10T14:00:41;17.00;99.90
29777;DHT22;16677;52.224;7.484;2022-07-10T14:03:08;16.70;99.90
29777;DHT22;16677;52.224;7.484;2022-07-10T14:05:36;16.40;99.90
29777;DHT22;16677;52.224;7.484;2022-07-10T14:08:05;16.00;99.90
29777;DHT22;16677;52.224;7.484;2022-07-10T14:10:33;16.10;99.90
29777;DHT22;16677;52.224;7.484;2022-07-10T14:13:00;15.90;99.90
29777;DHT22;16677;52.224;7.484;2022-07-10T14:15:37;15.90;99.90
29777;DHT22;16677;52.224;7.484;2022-07-10T14:18:05;15.90;99.90
29777;DHT22;16677;52.224;7.484;2022-07-10T14:20:32;15.90;99.90
29777;DHT22;16677;52.224;7.484;2022-07-10T14:23:20;15.90;99.90
29777;DHT22;16677;52.224;7.484;2022-07-10T14:25:47;15.90;99.90
29777;DHT22;16677;52.224;7.484;2022-07-10T14:28:15;15.90;99.90
29777;DHT22;16677;52.224;7.484;2022-07-10T14:30:42;15.90;99.90
29777;DHT22;16677;52.224;7.484;2022-07-10T14:33:17;15.90;99.90
29777;DHT22;16677;52.224;7.484;2022-07-10T14:35:44;15.80;99.90
29777;DHT22;16677;52.224;7.484;2022-07-10T14:38:12;15.90;99.90
29777;DHT22;16677;52.224;7.484;2022-07-10T14:40:39;16.10;99.90
29777;DHT22;16677;52.224;7.484;2022-07-10T14:43:06;16.20;99.90
29777;DHT22;16677;52.224;7.484;2022-07-10T14:45:33;16.10;99.90
29777;DHT22;16677;52.224;7.484;2022-07-10T14:48:21;16.20;99.90
29777;DHT22;16677;52.224;7.484;2022-07-10T14:50:49;16.10;99.90
29777;DHT22;16677;52.224;7.484;2022-07-10T14:53:16;15.90;99.90
29777;DHT22;16677;52.224;7.484;2022-07-10T14:55:43;16.00;99.90
29777;DHT22;16677;52.224;7.484;2022-07-10T14:58:10;16.20;99.90
29777;DHT22;16677;52.224;7.484;2022-07-10T15:00:37;16.20;99.90
29777;DHT22;16677;52.224;7.484;2022-07-10T15:03:04;16.40;99.90
29777;DHT22;16677;52.224;7.484;2022-07-10T15:05:31;16.40;99.90
29777;DHT22;16677;52.224;7.484;2022-07-10T15:08:00;16.60;99.90
29777;DHT22;16677;52.224;7.484;2022-07-10T15:10:31;16.50;99.90
29777;DHT22;16677;52.224;7.484;2022-07-10T15:12:59;16.40;99.90
29777;DHT22;16677;52.224;7.484;2022-07-10T15:15:27;16.50;99.90
29777;DHT22;16677;52.224;7.484;2022-07-10T15:17:54;16.50;99.90
29777;DHT22;16677;52.224;7.484;2022-07-10T15:20:21;16.70;99.90
29777;DHT22;16677;52.224;7.484;2022-07-10T15:22:48;17.00;99.90
29777;DHT22;16677;52.224;7.484;2022-07-10T15:25:16;17.20;99.90
29777;DHT22;16677;52.224;7.484;2022-07-10T15:27:43;17.70;99.90
29777;DHT22;16677;52.224;7.484;2022-07-10T15:30:10;17.50;99.90
29777;DHT22;16677;52.224;7.484;2022-07-10T15:32:39;17.70;99.90
29777;DHT22;16677;52.224;7.484;2022-07-10T15:35:06;17.40;99.90
29777;DHT22;16677;52.224;7.484;2022-07-10T15:37:34;17.10;99.90
29777;DHT22;16677;52.224;7.484;2022-07-10T15:40:03;17.10;99.90
29777;DHT22;16677;52.224;7.484;2022-07-10T15:42:30;16.90;99.90
29777;DHT22;16677;52.224;7.484;2022-07-10T15:44:58;16.80;99.90
29777;DHT22;16677;52.224;7.484;2022-07-10T15:47:25;16.80;99.90
29777;DHT22;16677;52.224;7.484;2022-07-10T15:49:52;16.80;99.90
29777;DHT22;16677;52.224;7.484;2022-07-10T15:52:20;16.90;99.90
29777;DHT22;16677;52.224;7.484;2022-07-10T15:54:47;16.90;99.90
29777;DHT22;16677;52.224;7.484;2022-07-10T15:57:15;17.00;99.90
29777;DHT22;16677;52.224;7.484;2022-07-10T15:59:42;17.00;99.90
29777;DHT22;16677;52.224;7.484;2022-07-10T16:02:10;17.00;99.90
29777;DHT22;16677;52.224;7.484;2022-07-10T16:04:38;17.00;99.90
29777;DHT22;16677;52.224;7.484;2022-07-10T16:07:06;17.00;99.90
29777;DHT22;16677;52.224;7.484;2022-07-10T16:09:36;17.00;99.90